createdAt,value
2022-09-21T00:01:17.551Z,4.30
2022-09-21T00:03:44.816Z,4.65
2022-09-21T00:06:17.307Z,4.57
2022-09-21T00:08:45.446Z,5.05
2022-09-21T00:11:33.148Z,6.35
2022-09-21T00:14:07.330Z,4.32
2022-09-21T00:16:34.468Z,4.72
2022-09-21T00:19:01.386Z,4.30
2022-09-21T00:21:28.489Z,4.20
2022-09-21T00:23:55.560Z,4.43
2022-09-21T00:26:25.061Z,4.60
2022-09-21T00:28:57.510Z,4.72
2022-09-21T00:31:24.908Z,4.80
2022-09-21T00:33:51.927Z,4.13
2022-09-21T00:36:21.255Z,4.13
2022-09-21T00:38:56.984Z,3.85
2022-09-21T00:41:25.488Z,4.07
2022-09-21T00:44:21.174Z,3.38
2022-09-21T00:46:51.274Z,3.20
2022-09-21T00:49:18.447Z,2.95
2022-09-21T00:51:46.216Z,3.70
2022-09-21T00:54:22.302Z,3.85
2022-09-21T00:56:49.263Z,3.38
2022-09-21T00:59:21.521Z,3.03
2022-09-21T01:01:49.626Z,3.20
2022-09-21T01:04:18.941Z,3.40
2022-09-21T01:06:46.765Z,3.65
2022-09-21T01:09:14.708Z,3.85
2022-09-21T01:11:41.422Z,3.42
2022-09-21T01:14:34.525Z,3.10
2022-09-21T01:17:21.830Z,3.40
2022-09-21T01:20:13.144Z,3.30
2022-09-21T01:22:58.191Z,3.27
2022-09-21T01:26:11.561Z,3.22
2022-09-21T01:28:43.839Z,3.30
2022-09-21T01:31:17.063Z,3.17
2022-09-21T01:33:51.274Z,3.30
2022-09-21T01:36:25.005Z,3.20
2022-09-21T01:39:00.083Z,4.00
2022-09-21T01:41:30.264Z,3.00
2022-09-21T01:44:03.077Z,3.20
2022-09-21T01:46:32.371Z,3.00
2022-09-21T01:49:12.693Z,3.17
2022-09-21T01:51:43.895Z,3.10
2022-09-21T01:54:22.586Z,3.25
2022-09-21T01:56:59.499Z,3.10
2022-09-21T01:59:43.211Z,2.85
2022-09-21T02:02:28.999Z,2.97
2022-09-21T02:04:55.888Z,3.75
2022-09-21T02:07:22.822Z,3.28
2022-09-21T02:09:49.631Z,2.72
2022-09-21T02:12:19.075Z,2.47
2022-09-21T02:14:46.461Z,2.80
2022-09-21T02:17:18.601Z,3.13
2022-09-21T02:20:12.473Z,2.90
2022-09-21T02:22:48.249Z,2.88
2022-09-21T02:25:23.016Z,2.80
2022-09-21T02:28:36.005Z,2.42
2022-09-21T02:31:43.843Z,2.45
2022-09-21T02:34:36.291Z,2.33
2022-09-21T02:37:31.172Z,3.15
2022-09-21T02:40:17.870Z,3.28
2022-09-21T02:42:46.347Z,2.40
2022-09-21T02:45:20.821Z,2.50
2022-09-21T02:48:15.135Z,2.47
2022-09-21T02:50:52.324Z,2.50
2022-09-21T02:53:27.448Z,2.70
2022-09-21T02:55:56.693Z,2.47
2022-09-21T02:58:26.754Z,2.38
2022-09-21T03:00:56.401Z,2.65
2022-09-21T03:03:24.780Z,2.45
2022-09-21T03:05:54.414Z,2.85
2022-09-21T03:08:21.443Z,2.50
2022-09-21T03:10:50.589Z,2.70
2022-09-21T03:13:18.831Z,2.53
2022-09-21T03:15:45.911Z,2.60
2022-09-21T03:18:13.469Z,2.55
2022-09-21T03:20:46.127Z,2.38
2022-09-21T03:23:13.521Z,2.15
2022-09-21T03:25:40.320Z,2.30
2022-09-21T03:28:06.976Z,2.63
2022-09-21T03:30:33.696Z,2.78
2022-09-21T03:33:00.366Z,2.40
2022-09-21T03:35:27.444Z,2.55
2022-09-21T03:37:55.280Z,2.13
2022-09-21T03:40:23.113Z,2.05
2022-09-21T03:42:49.845Z,2.25
2022-09-21T03:45:16.629Z,2.35
2022-09-21T03:47:43.527Z,2.20
2022-09-21T03:50:12.023Z,2.30
2022-09-21T03:52:39.195Z,2.30
2022-09-21T03:55:07.737Z,2.30
2022-09-21T03:57:36.176Z,2.58
2022-09-21T04:00:06.784Z,2.50
2022-09-21T04:02:33.488Z,2.10
2022-09-21T04:05:00.180Z,2.50
2022-09-21T04:07:26.891Z,2.75
2022-09-21T04:09:54.012Z,2.65
2022-09-21T04:12:24.617Z,2.13
2022-09-21T04:14:51.260Z,1.90
2022-09-21T04:17:18.155Z,2.20
2022-09-21T04:19:48.562Z,2.33
2022-09-21T04:22:15.258Z,2.08
2022-09-21T04:24:41.880Z,2.13
2022-09-21T04:27:09.460Z,3.10
2022-09-21T04:29:36.233Z,2.45
2022-09-21T04:32:03.313Z,2.13
2022-09-21T04:34:31.125Z,2.38
2022-09-21T04:36:58.841Z,2.03
2022-09-21T04:39:26.336Z,2.33
2022-09-21T04:41:53.048Z,2.25
2022-09-21T04:44:19.763Z,2.20
2022-09-21T04:46:46.515Z,2.28
2022-09-21T04:49:13.216Z,2.63
2022-09-21T04:51:39.929Z,2.15
2022-09-21T04:54:06.735Z,2.30
2022-09-21T04:56:34.156Z,2.30
2022-09-21T04:59:01.376Z,2.10
2022-09-21T05:01:28.197Z,2.60
2022-09-21T05:03:55.139Z,2.13
2022-09-21T05:06:21.847Z,2.00
2022-09-21T05:09:06.875Z,2.70
2022-09-21T05:11:33.520Z,2.50
2022-09-21T05:14:00.198Z,1.98
2022-09-21T05:16:26.850Z,2.10
2022-09-21T05:18:55.519Z,2.25
2022-09-21T05:21:22.353Z,2.13
2022-09-21T05:23:49.184Z,2.35
2022-09-21T05:26:15.831Z,2.20
2022-09-21T05:28:42.813Z,2.30
2022-09-21T05:31:24.621Z,2.45
2022-09-21T05:34:08.312Z,2.30
2022-09-21T05:37:02.923Z,2.25
2022-09-21T05:39:29.874Z,2.30
2022-09-21T05:41:57.029Z,2.20
2022-09-21T05:44:23.960Z,2.03
2022-09-21T05:47:03.838Z,2.50
2022-09-21T05:49:45.821Z,1.95
2022-09-21T05:55:18.612Z,2.50
2022-09-21T05:58:01.764Z,2.22
2022-09-21T06:00:38.188Z,1.98
2022-09-21T06:03:24.149Z,2.28
2022-09-21T06:05:51.396Z,2.50
2022-09-21T06:08:18.073Z,2.92
2022-09-21T06:10:45.298Z,2.20
2022-09-21T06:13:12.051Z,2.85
2022-09-21T06:15:39.006Z,2.63
2022-09-21T06:18:08.920Z,2.72
2022-09-21T06:20:35.740Z,2.40
2022-09-21T06:23:11.084Z,2.38
2022-09-21T06:25:38.090Z,2.70
2022-09-21T06:28:06.423Z,2.58
2022-09-21T06:30:34.730Z,2.58
2022-09-21T06:33:02.373Z,2.67
2022-09-21T06:35:29.905Z,2.53
2022-09-21T06:38:01.329Z,2.45
2022-09-21T06:40:29.166Z,3.08
2022-09-21T06:43:00.267Z,2.63
2022-09-21T06:45:28.121Z,2.67
2022-09-21T06:47:55.046Z,3.25
2022-09-21T06:50:21.986Z,2.78
2022-09-21T06:52:48.639Z,2.92
2022-09-21T06:55:15.938Z,2.90
2022-09-21T06:57:43.595Z,3.20
2022-09-21T07:00:12.178Z,2.90
2022-09-21T07:02:42.206Z,2.47
2022-09-21T07:05:08.964Z,2.78
2022-09-21T07:07:36.398Z,2.80
2022-09-21T07:10:05.830Z,2.55
2022-09-21T07:12:34.629Z,2.70
2022-09-21T07:15:02.488Z,2.42
2022-09-21T07:17:37.356Z,3.72
2022-09-21T07:20:05.762Z,3.50
2022-09-21T07:22:33.116Z,3.72
2022-09-21T07:25:00.072Z,2.90
2022-09-21T07:27:29.487Z,2.88
2022-09-21T07:29:56.141Z,2.97
2022-09-21T07:32:22.835Z,3.45
2022-09-21T07:34:49.584Z,3.67
2022-09-21T07:37:16.281Z,2.67
2022-09-21T07:39:43.035Z,1.98
2022-09-21T07:42:09.724Z,2.38
2022-09-21T07:44:36.349Z,1.80
2022-09-21T07:47:03.367Z,1.77
2022-09-21T07:49:30.198Z,1.95
2022-09-21T07:52:01.501Z,1.90
2022-09-21T07:54:30.481Z,1.70
2022-09-21T07:57:15.818Z,1.67
2022-09-21T07:59:42.452Z,1.48
2022-09-21T08:02:09.221Z,1.65
2022-09-21T08:04:36.013Z,1.55
2022-09-21T08:07:02.676Z,1.50
2022-09-21T08:09:29.307Z,1.50
2022-09-21T08:11:55.987Z,1.67
2022-09-21T08:14:26.306Z,1.30
2022-09-21T08:16:53.578Z,1.92
2022-09-21T08:19:20.914Z,1.50
2022-09-21T08:21:54.927Z,1.48
2022-09-21T08:24:25.034Z,1.50
2022-09-21T08:26:52.206Z,1.63
2022-09-21T08:29:19.297Z,1.05
2022-09-21T08:31:46.665Z,1.55
2022-09-21T08:34:14.265Z,1.10
2022-09-21T08:36:41.059Z,1.30
2022-09-21T08:39:09.010Z,1.17
2022-09-21T08:42:10.634Z,1.20
2022-09-21T08:45:01.895Z,0.80
2022-09-21T08:47:59.703Z,0.97
2022-09-21T08:50:54.079Z,1.20
2022-09-21T08:53:28.189Z,0.90
2022-09-21T08:55:58.268Z,1.10
2022-09-21T08:58:27.200Z,0.70
2022-09-21T09:01:07.372Z,1.20
2022-09-21T09:03:55.534Z,0.80
2022-09-21T09:06:36.829Z,1.00
2022-09-21T09:09:09.609Z,0.88
2022-09-21T09:12:11.384Z,1.15
2022-09-21T09:14:46.749Z,1.35
2022-09-21T09:17:47.040Z,0.88
2022-09-21T09:20:36.138Z,0.70
2022-09-21T09:23:28.728Z,1.05
2022-09-21T09:26:02.046Z,0.85
2022-09-21T09:28:53.225Z,0.90
2022-09-21T09:31:31.980Z,0.80
2022-09-21T09:34:17.576Z,0.80
2022-09-21T09:36:58.832Z,0.82
2022-09-21T09:41:58.099Z,0.77
2022-09-21T09:44:54.689Z,1.05
2022-09-21T09:47:43.655Z,0.70
2022-09-21T09:50:46.088Z,1.00
2022-09-21T09:53:18.786Z,1.27
2022-09-21T09:55:49.455Z,0.70
2022-09-21T09:58:40.248Z,0.73
2022-09-21T10:01:07.329Z,0.82
2022-09-21T10:03:34.354Z,0.73
2022-09-21T10:06:00.981Z,1.10
2022-09-21T10:08:27.655Z,0.98
2022-09-21T10:10:54.480Z,0.75
2022-09-21T10:13:39.036Z,0.93
2022-09-21T10:16:18.941Z,0.55
2022-09-21T10:18:50.599Z,0.80
2022-09-21T10:24:02.804Z,0.63
2022-09-21T10:26:36.160Z,0.93
2022-09-21T10:29:21.283Z,0.98
2022-09-21T10:31:57.020Z,0.88
2022-09-21T10:34:24.825Z,0.80
2022-09-21T10:36:54.616Z,1.00
2022-09-21T10:39:30.058Z,0.90
2022-09-21T10:42:15.554Z,1.00
2022-09-21T10:44:50.803Z,1.00
2022-09-21T10:47:37.111Z,0.82
2022-09-21T10:50:29.050Z,0.70
2022-09-21T10:55:25.733Z,0.55
2022-09-21T10:57:53.121Z,0.65
2022-09-21T11:00:25.702Z,0.60
2022-09-21T11:02:54.938Z,0.75
2022-09-21T11:05:37.968Z,0.70
2022-09-21T11:08:16.381Z,0.93
2022-09-21T11:11:02.040Z,0.88
2022-09-21T11:13:34.634Z,0.70
2022-09-21T11:16:04.208Z,1.00
2022-09-21T11:19:01.911Z,0.45
2022-09-21T11:21:41.672Z,0.75
2022-09-21T11:24:24.005Z,0.60
2022-09-21T11:26:59.291Z,1.00
2022-09-21T11:29:39.900Z,0.60
2022-09-21T11:32:44.121Z,0.47
2022-09-21T11:35:44.984Z,0.55
2022-09-21T11:38:43.131Z,0.60
2022-09-21T11:41:42.359Z,0.47
2022-09-21T11:44:33.646Z,0.70
2022-09-21T11:47:16.543Z,0.80
2022-09-21T11:50:31.656Z,0.75
2022-09-21T11:53:01.344Z,0.70
2022-09-21T11:55:34.091Z,1.08
2022-09-21T11:58:15.253Z,0.60
2022-09-21T12:00:48.117Z,0.70
2022-09-21T12:03:30.383Z,0.50
2022-09-21T12:06:05.905Z,0.45
2022-09-21T12:08:54.176Z,0.98
2022-09-21T12:11:39.662Z,0.57
2022-09-21T12:14:39.093Z,0.60
2022-09-21T12:17:28.993Z,0.82
2022-09-21T12:20:20.410Z,1.00
2022-09-21T12:22:50.247Z,1.30
2022-09-21T12:25:26.201Z,0.60
2022-09-21T12:28:13.175Z,0.60
2022-09-21T12:30:43.138Z,0.68
2022-09-21T12:33:17.593Z,0.77
2022-09-21T12:35:48.338Z,0.90
2022-09-21T12:38:41.314Z,0.47
2022-09-21T12:41:24.777Z,1.17
2022-09-21T12:44:19.468Z,1.10
2022-09-21T12:47:11.434Z,1.50
2022-09-21T12:49:48.278Z,2.13
2022-09-21T12:52:34.117Z,1.00
2022-09-21T12:55:31.006Z,0.95
2022-09-21T12:58:30.965Z,0.93
2022-09-21T13:01:18.242Z,0.88
2022-09-21T13:04:08.478Z,0.63
2022-09-21T13:06:35.072Z,0.90
2022-09-21T13:09:05.223Z,0.80
2022-09-21T13:11:34.924Z,0.70
2022-09-21T13:14:04.426Z,0.80
2022-09-21T13:16:38.875Z,0.55
2022-09-21T13:19:21.678Z,1.35
2022-09-21T13:22:22.482Z,0.93
2022-09-21T13:25:03.768Z,1.17
2022-09-21T13:27:57.872Z,0.63
2022-09-21T13:30:32.519Z,1.10
2022-09-21T13:32:59.441Z,0.90
2022-09-21T13:35:45.080Z,0.70
2022-09-21T13:38:41.180Z,0.82
2022-09-21T13:41:19.583Z,0.88
2022-09-21T13:43:59.736Z,0.80
2022-09-21T13:46:35.171Z,0.88
2022-09-21T13:49:06.078Z,0.80
2022-09-21T13:51:33.344Z,0.82
2022-09-21T13:54:02.613Z,0.80
2022-09-21T13:56:33.226Z,0.75
2022-09-21T13:59:00.127Z,0.90
2022-09-21T14:01:51.323Z,0.75
2022-09-21T14:04:25.028Z,0.98
2022-09-21T14:06:54.167Z,1.00
2022-09-21T14:09:34.871Z,1.02
2022-09-21T14:12:08.331Z,0.88
2022-09-21T14:14:39.934Z,0.60
2022-09-21T14:19:53.077Z,0.70
2022-09-21T14:22:20.176Z,1.15
2022-09-21T14:24:51.122Z,0.98
2022-09-21T14:27:26.793Z,0.70
2022-09-21T14:29:59.763Z,0.80
2022-09-21T14:32:32.276Z,0.73
2022-09-21T14:35:08.078Z,0.45
2022-09-21T14:37:40.695Z,1.20
2022-09-21T14:40:20.857Z,0.60
2022-09-21T14:42:49.259Z,0.90
2022-09-21T14:45:18.543Z,0.93
2022-09-21T14:48:02.668Z,0.65
2022-09-21T14:50:33.761Z,0.47
2022-09-21T14:53:17.173Z,0.68
2022-09-21T14:56:10.148Z,0.70
2022-09-21T14:59:21.188Z,0.82
2022-09-21T15:02:02.304Z,0.88
2022-09-21T15:04:45.713Z,0.93
2022-09-21T15:07:50.309Z,0.63
2022-09-21T15:10:55.152Z,0.52
2022-09-21T15:13:36.159Z,0.60
2022-09-21T15:16:21.757Z,2.40
2022-09-21T15:18:51.248Z,0.70
2022-09-21T15:21:29.557Z,0.82
2022-09-21T15:23:56.852Z,1.25
2022-09-21T15:26:29.218Z,1.20
2022-09-21T15:29:09.329Z,0.65
2022-09-21T15:31:41.957Z,0.60
2022-09-21T15:34:10.940Z,0.70
2022-09-21T15:36:40.078Z,0.50
2022-09-21T15:39:07.424Z,0.63
2022-09-21T15:41:44.898Z,0.70
2022-09-21T15:44:17.441Z,0.90
2022-09-21T15:46:48.145Z,0.55
2022-09-21T15:49:17.835Z,0.60
2022-09-21T15:51:45.991Z,1.02
2022-09-21T15:54:27.383Z,0.70
2022-09-21T15:56:55.613Z,0.98
2022-09-21T15:59:22.895Z,1.00
2022-09-21T16:01:53.163Z,0.80
2022-09-21T16:04:22.686Z,0.80
2022-09-21T16:07:16.685Z,1.10
2022-09-21T16:09:45.241Z,0.85
2022-09-21T16:12:26.841Z,0.60
2022-09-21T16:14:54.110Z,0.82
2022-09-21T16:17:24.281Z,0.90
2022-09-21T16:19:50.925Z,0.90
2022-09-21T16:22:30.781Z,0.90
2022-09-21T16:24:59.872Z,1.00
2022-09-21T16:27:29.729Z,0.90
2022-09-21T16:29:58.502Z,0.90
2022-09-21T16:32:33.403Z,0.95
2022-09-21T16:35:31.593Z,1.58
2022-09-21T16:37:58.975Z,1.30
2022-09-21T16:40:29.146Z,1.70
2022-09-21T16:42:56.611Z,1.58
2022-09-21T16:45:28.388Z,1.50
2022-09-21T16:47:56.184Z,1.50
2022-09-21T16:50:24.180Z,1.80
2022-09-21T16:52:52.416Z,2.00
2022-09-21T16:55:21.164Z,1.63
2022-09-21T16:57:49.453Z,1.67
2022-09-21T17:00:22.150Z,1.48
2022-09-21T17:02:49.423Z,1.80
2022-09-21T17:05:19.243Z,1.63
2022-09-21T17:07:58.079Z,3.17
2022-09-21T17:10:30.905Z,3.17
2022-09-21T17:12:59.071Z,2.72
2022-09-21T17:15:27.214Z,2.30
2022-09-21T17:17:53.909Z,2.75
2022-09-21T17:20:38.571Z,3.92
2022-09-21T17:23:05.564Z,4.00
2022-09-21T17:25:33.477Z,3.70
2022-09-21T17:28:01.385Z,3.95
2022-09-21T17:30:29.002Z,3.33
2022-09-21T17:32:56.181Z,4.10
2022-09-21T17:35:33.401Z,4.05
2022-09-21T17:38:00.540Z,4.10
2022-09-21T17:40:27.864Z,4.65
2022-09-21T17:43:06.352Z,4.45
2022-09-21T17:45:41.823Z,4.20
2022-09-21T17:48:16.836Z,4.15
2022-09-21T17:50:43.657Z,3.22
2022-09-21T17:53:29.016Z,3.03
2022-09-21T17:55:58.851Z,3.20
2022-09-21T17:58:39.828Z,3.25
2022-09-21T18:01:13.915Z,2.77
2022-09-21T18:03:43.027Z,3.22
2022-09-21T18:06:10.731Z,4.10
2022-09-21T18:08:39.237Z,3.83
2022-09-21T18:11:42.256Z,4.28
2022-09-21T18:14:37.383Z,4.32
2022-09-21T18:17:21.712Z,4.53
2022-09-21T18:20:24.205Z,3.65
2022-09-21T18:22:57.301Z,4.55
2022-09-21T18:25:47.432Z,3.97
2022-09-21T18:28:32.655Z,3.78
2022-09-21T18:31:39.980Z,4.30
2022-09-21T18:34:29.060Z,5.60
2022-09-21T18:37:20.463Z,5.05
2022-09-21T18:40:18.268Z,5.43
2022-09-21T18:43:22.602Z,5.40
2022-09-21T18:46:01.796Z,4.60
2022-09-21T18:49:06.871Z,5.20
2022-09-21T18:51:51.514Z,4.07
2022-09-21T18:54:21.489Z,3.72
2022-09-21T18:56:48.559Z,4.35
2022-09-21T18:59:16.637Z,4.47
2022-09-21T19:01:44.714Z,4.53
2022-09-21T19:04:11.875Z,4.40
2022-09-21T19:07:13.830Z,4.47
2022-09-21T19:10:05.225Z,4.60
2022-09-21T19:13:04.591Z,4.38
2022-09-21T19:16:00.953Z,5.22
2022-09-21T19:18:43.140Z,5.22
2022-09-21T19:21:42.135Z,5.10
2022-09-21T19:24:30.588Z,5.25
2022-09-21T19:27:26.128Z,7.00
2022-09-21T19:30:04.507Z,6.35
2022-09-21T19:32:52.989Z,6.72
2022-09-21T19:35:19.910Z,7.22
2022-09-21T19:37:47.520Z,7.03
2022-09-21T19:40:16.130Z,6.32
2022-09-21T19:43:30.130Z,6.18
2022-09-21T19:46:33.978Z,5.65
2022-09-21T19:49:19.537Z,5.97
2022-09-21T19:51:52.863Z,5.70
2022-09-21T19:54:41.367Z,7.32
2022-09-21T19:57:35.828Z,7.60
2022-09-21T20:00:05.233Z,7.95
2022-09-21T20:02:48.826Z,8.88
2022-09-21T20:05:51.836Z,9.13
2022-09-21T20:08:38.556Z,8.57
2022-09-21T20:11:13.603Z,8.77
2022-09-21T20:13:55.409Z,7.70
2022-09-21T20:16:40.719Z,9.60
2022-09-21T20:19:24.608Z,9.73
2022-09-21T20:21:58.750Z,8.48
2022-09-21T20:24:33.273Z,11.77
2022-09-21T20:27:02.377Z,9.80
2022-09-21T20:29:29.018Z,8.50
2022-09-21T20:31:56.205Z,8.80
2022-09-21T20:34:22.887Z,7.47
2022-09-21T20:36:49.540Z,7.15
2022-09-21T20:39:16.251Z,6.72
2022-09-21T20:41:42.961Z,6.28
2022-09-21T20:44:12.616Z,5.55
2022-09-21T20:46:39.457Z,7.22
2022-09-21T20:49:08.586Z,5.82
2022-09-21T20:51:36.021Z,6.45
2022-09-21T20:54:03.693Z,5.20
2022-09-21T20:56:31.296Z,4.80
2022-09-21T20:58:58.064Z,5.15
2022-09-21T21:01:25.094Z,4.75
2022-09-21T21:03:51.938Z,5.50
2022-09-21T21:06:18.901Z,5.45
2022-09-21T21:08:46.419Z,6.10
2022-09-21T21:11:14.329Z,8.20
2022-09-21T21:13:41.236Z,6.82
2022-09-21T21:16:11.784Z,7.40
2022-09-21T21:18:40.592Z,7.47
2022-09-21T21:21:07.533Z,8.70
2022-09-21T21:23:54.285Z,8.82
2022-09-21T21:26:26.382Z,9.43
2022-09-21T21:29:05.132Z,8.23
2022-09-21T21:31:32.211Z,7.18
2022-09-21T21:33:58.965Z,7.30
2022-09-21T21:36:25.671Z,6.95
2022-09-21T21:38:52.364Z,6.18
2022-09-21T21:41:19.133Z,8.05
2022-09-21T21:43:45.793Z,7.90
2022-09-21T21:46:12.899Z,7.35
2022-09-21T21:48:43.030Z,6.80
2022-09-21T21:51:10.055Z,6.78
2022-09-21T21:53:38.277Z,6.43
2022-09-21T21:56:10.333Z,6.38
2022-09-21T21:58:37.970Z,6.55
2022-09-21T22:01:10.621Z,7.32
2022-09-21T22:03:37.777Z,7.45
2022-09-21T22:06:06.023Z,7.30
2022-09-21T22:08:33.955Z,8.40
2022-09-21T22:11:00.971Z,7.72
2022-09-21T22:13:32.992Z,7.90
2022-09-21T22:16:05.037Z,7.28
2022-09-21T22:18:32.558Z,6.75
2022-09-21T22:21:06.396Z,6.00
2022-09-21T22:23:33.517Z,6.30
2022-09-21T22:26:06.756Z,5.88
2022-09-21T22:28:34.455Z,6.65
2022-09-21T22:31:02.272Z,6.28
2022-09-21T22:33:35.262Z,6.63
2022-09-21T22:36:07.720Z,7.47
2022-09-21T22:38:39.169Z,8.02
2022-09-21T22:41:14.569Z,7.38
2022-09-21T22:43:41.513Z,6.90
2022-09-21T22:46:08.231Z,5.78
2022-09-21T22:48:35.360Z,5.63
2022-09-21T22:51:02.741Z,6.15
2022-09-21T22:53:29.794Z,4.53
2022-09-21T22:56:02.444Z,3.85
2022-09-21T22:58:29.659Z,4.60
2022-09-21T23:01:04.014Z,3.97
2022-09-21T23:03:30.706Z,5.82
2022-09-21T23:05:58.556Z,7.10
2022-09-21T23:08:25.639Z,8.23
2022-09-21T23:10:52.301Z,7.18
2022-09-21T23:13:18.939Z,9.48
2022-09-21T23:15:45.632Z,7.80
2022-09-21T23:18:12.480Z,8.50
2022-09-21T23:20:39.395Z,10.43
2022-09-21T23:23:06.058Z,9.02
2022-09-21T23:25:33.066Z,8.52
2022-09-21T23:28:00.485Z,7.70
2022-09-21T23:30:27.146Z,6.75
2022-09-21T23:32:53.884Z,6.72
2022-09-21T23:35:20.518Z,6.30
2022-09-21T23:37:47.226Z,5.13
2022-09-21T23:40:14.507Z,5.53
2022-09-21T23:42:41.193Z,5.47
2022-09-21T23:45:08.449Z,5.57
2022-09-21T23:47:35.266Z,4.70
2022-09-21T23:50:02.003Z,3.80
2022-09-21T23:52:28.724Z,4.18
2022-09-21T23:54:55.341Z,3.47
2022-09-21T23:57:22.006Z,3.50
2022-09-21T23:59:50.072Z,2.80
